Time;durP1;ratioP1;P1;durP2;ratioP2;P2;SDS_P1;SDS_P2;PMS_P1;PMS_P2;Temp;Humidity;BMP_temperature;BMP_pressure;BME280_temperature;BME280_humidity;BME280_pressure;Samples;Min_cycle;Max_cycle;Signal;HPM_P1;HPM_P2
2021/12/25 00:00:04;;;;;;;2.00;1.15;;;;;;;7.26;53.77;98568.58;1835335;104;25988;-86
2021/12/25 00:03:35;;;;;;;;;;;;;;;7.24;53.73;98572.86;1894512;97;25839;-86
2021/12/25 00:07:28;;;;;;;;;;;;;;;;;;;;;
2021/12/25 00:15:39;;;;;;;;;;;;;;;7.13;53.64;98599.13;1943656;100;25448;-85
2021/12/25 00:19:09;;;;;;;1.37;0.80;;;;;;;7.10;53.57;98624.14;1895938;102;25760;-85
2021/12/25 00:22:44;;;;;;;1.05;0.78;;;;;;;7.07;53.55;98621.95;1831071;106;25853;-85
2021/12/25 00:34:44;;;;;;;0.78;0.65;;;;;;;6.97;53.49;98657.27;1856066;104;25972;-87
2021/12/25 00:38:16;;;;;;;1.42;0.70;;;;;;;6.95;53.40;98664.17;1855976;104;26303;-86
2021/12/25 00:41:57;;;;;;;0.88;0.70;;;;;;;6.93;53.41;98682.70;1882134;103;26439;-86
2021/12/25 00:45:29;;;;;;;1.37;0.68;;;;;;;6.91;53.44;98686.98;1839127;105;25795;-86
2021/12/25 00:49:15;;;;;;;2.67;0.85;;;;;;;6.90;53.45;98703.38;1867235;104;26122;-85
2021/12/25 00:52:49;;;;;;;1.45;0.98;;;;;;;6.89;53.44;98713.31;1871053;103;25894;-85
2021/12/25 00:56:18;;;;;;;1.37;0.85;;;;;;;6.88;53.44;98719.75;1837077;105;25890;-87
2021/12/25 00:59:55;;;;;;;1.77;0.82;;;;;;;6.85;53.43;98728.34;1817204;106;25968;-86
2021/12/25 01:07:14;;;;;;;0.70;0.70;;;;;;;6.80;53.40;98739.09;1790339;108;25935;-88
2021/12/25 01:10:57;;;;;;;1.77;1.00;;;;;;;6.77;53.34;98743.80;1810848;107;25905;-86
2021/12/25 01:14:45;;;;;;;1.22;0.78;;;;;;;6.75;53.32;98763.66;1881381;101;26070;-84
2021/12/25 01:30:18;;;;;;;2.12;0.90;;;;;;;6.62;53.19;98810.52;1976564;99;25812;-87
2021/12/25 01:38:05;;;;;;;1.47;1.15;;;;;;;6.54;53.03;98830.23;1924522;101;25835;-87
2021/12/25 01:49:24;;;;;;;1.98;0.70;;;;;;;6.42;52.89;98862.42;1871008;104;25776;-84
2021/12/25 01:52:58;;;;;;;0.60;0.60;;;;;;;6.37;52.90;98867.50;1864728;103;26543;-84
2021/12/25 02:00:07;;;;;;;1.32;0.62;;;;;;;6.29;52.89;98888.52;1880982;103;25798;-86
2021/12/25 02:03:45;;;;;;;1.50;0.80;;;;;;;6.28;52.88;98885.92;1832213;106;25891;-86
2021/12/25 02:07:46;;;;;;;2.22;0.78;;;;;;;6.25;52.82;98902.26;1776286;106;25797;-86
2021/12/25 02:11:27;;;;;;;1.47;0.68;;;;;;;6.22;52.80;98899.62;1847233;105;25785;-86
2021/12/25 02:15:00;;;;;;;2.42;0.85;;;;;;;6.17;52.77;98912.02;1813600;107;25883;-87
2021/12/25 02:47:19;;;;;;;;;;;;;;;;;;;;;
2021/12/25 02:51:07;;;;;;;1.10;0.55;;;;;;;5.72;52.28;98991.33;1807174;107;25860;-85
2021/12/25 02:54:51;;;;;;;2.45;0.60;;;;;;;5.66;52.22;98998.95;1772707;109;25862;-85
2021/12/25 02:58:30;;;;;;;0.90;0.72;;;;;;;5.64;52.21;99006.69;1717541;112;25849;-86
2021/12/25 03:02:27;;;;;;;1.27;0.62;;;;;;;5.60;52.19;99010.45;1705536;113;25845;-84
2021/12/25 03:06:07;;;;;;;0.90;0.42;;;;;;;5.56;52.17;99022.86;1755824;111;25925;-83
2021/12/25 03:09:44;;;;;;;1.40;0.57;;;;;;;5.52;52.16;99016.75;1759912;110;25957;-85
2021/12/25 03:13:30;;;;;;;0.80;0.65;;;;;;;5.49;52.10;99022.27;1713470;112;25802;-85
2021/12/25 03:16:43;;;;;;;1.02;0.50;;;;;;;5.45;52.10;99026.51;1733448;110;25933;-85
2021/12/25 03:20:13;;;;;;;0.95;0.65;;;;;;;5.41;52.01;99033.32;1744874;110;25953;-87
2021/12/25 03:23:45;;;;;;;1.92;0.70;;;;;;;5.38;52.01;99032.37;1791804;108;25876;-85
2021/12/25 03:27:17;;;;;;;1.35;0.50;;;;;;;5.35;52.00;99040.06;1758635;110;25826;-85
2021/12/25 03:31:03;;;;;;;;;;;;;;;;;;;;;
2021/12/25 03:34:40;;;;;;;;;;;;;;;;;;;;;
2021/12/25 03:38:31;;;;;;;1.92;0.85;;;;;;;5.25;51.86;99064.81;1834175;107;26129;-85
2021/12/25 03:42:41;;;;;;;;;;;;;;;;;;;;;
2021/12/25 03:46:19;;;;;;;1.00;0.70;;;;;;;5.17;51.81;99075.39;1833462;105;25898;-85
2021/12/25 03:58:07;;;;;;;1.75;0.80;;;;;;;5.05;51.65;99100.48;1898393;102;25937;-86
2021/12/25 04:05:19;;;;;;;1.25;0.70;;;;;;;4.97;51.59;99110.64;1837118;106;26099;-86
2021/12/25 04:12:31;;;;;;;1.55;1.07;;;;;;;4.90;51.46;99127.23;1899708;102;25812;-85
2021/12/25 04:16:20;;;;;;;;;;;;;;;;;;;;;
2021/12/25 04:19:37;;;;;;;2.10;0.90;;;;;;;4.83;51.40;99148.14;1905423;100;26420;-87
2021/12/25 04:23:14;;;;;;;1.52;0.90;;;;;;;4.80;51.33;99152.35;1920977;100;25842;-87
2021/12/25 04:27:11;;;;;;;2.55;0.88;;;;;;;4.77;51.27;99161.30;1885777;102;25767;-86
2021/12/25 05:02:07;;;;;;;2.35;1.10;;;;;;;4.38;50.78;99213.11;1824030;107;26001;-87
2021/12/25 05:06:11;;;;;;;1.10;0.90;;;;;;;4.34;50.72;99212.56;1821713;107;25428;-87
2021/12/25 05:10:02;;;;;;;;;;;;;;;;;;;;;
2021/12/25 05:13:42;;;;;;;2.25;0.93;;;;;;;4.24;50.61;99221.73;1772333;110;25938;-87
2021/12/25 05:17:13;;;;;;;2.00;0.70;;;;;;;4.22;50.57;99221.25;1764779;110;25706;-87
2021/12/25 05:20:53;;;;;;;2.35;1.07;;;;;;;4.17;50.53;99222.80;1767454;110;26050;-86
2021/12/25 05:24:40;;;;;;;2.70;1.02;;;;;;;4.13;50.54;99233.44;1865121;104;25807;-87
2021/12/25 05:28:26;;;;;;;1.65;0.80;;;;;;;4.11;50.55;99236.38;1853595;103;25833;-84
2021/12/25 05:31:57;;;;;;;1.57;0.95;;;;;;;4.09;50.48;99240.63;1909195;102;25809;-86
2021/12/25 05:36:26;;;;;;;1.60;0.90;;;;;;;4.05;50.47;99245.23;1910058;100;25810;-86
2021/12/25 05:40:04;;;;;;;2.72;1.00;;;;;;;4.01;50.39;99253.68;1905768;101;25925;-86
2021/12/25 05:43:35;;;;;;;2.05;0.95;;;;;;;3.97;50.39;99255.29;1908583;101;25757;-87
2021/12/25 05:47:19;;;;;;;1.62;1.12;;;;;;;3.95;50.39;99259.96;1905980;101;25863;-87
2021/12/25 05:51:04;;;;;;;;;;;;;;;;;;;;;
2021/12/25 05:54:49;;;;;;;2.12;1.00;;;;;;;3.89;50.35;99267.49;1873287;102;25929;-88
2021/12/25 05:58:28;;;;;;;2.50;1.00;;;;;;;3.86;50.30;99280.28;1888829;103;25912;-88
2021/12/25 06:02:20;;;;;;;1.32;1.00;;;;;;;3.81;50.30;99276.24;1878471;101;25845;-88
2021/12/25 06:06:02;;;;;;;3.02;0.98;;;;;;;3.79;50.23;99292.09;1906308;100;25682;-85
2021/12/25 06:09:28;;;;;;;3.35;1.17;;;;;;;3.75;50.18;99291.53;1906824;101;26429;-86
2021/12/25 06:13:09;;;;;;;1.87;0.88;;;;;;;3.70;50.16;99293.94;1884358;103;26007;-86
2021/12/25 06:16:45;;;;;;;2.77;0.95;;;;;;;3.67;50.10;99298.98;1889121;102;25477;-86
2021/12/25 06:20:41;;;;;;;6.78;1.50;;;;;;;3.64;50.06;99302.75;1911404;101;26291;-85
2021/12/25 06:24:21;;;;;;;1.30;1.15;;;;;;;3.60;50.03;99304.77;1890029;102;25775;-88
2021/12/25 06:27:54;;;;;;;1.95;1.20;;;;;;;3.58;49.98;99318.03;1819869;107;25963;-88
2021/12/25 06:31:58;;;;;;;2.92;1.25;;;;;;;3.56;49.92;99323.53;1817892;105;25835;-85
2021/12/25 06:35:35;;;;;;;2.47;1.30;;;;;;;3.52;49.92;99329.41;1823885;106;26549;-87
2021/12/25 06:39:25;;;;;;;3.22;1.98;;;;;;;3.49;49.86;99335.73;1801225;108;25953;-88
2021/12/25 06:43:14;;;;;;;2.27;1.55;;;;;;;3.47;49.81;99341.23;1765166;110;25910;-87
2021/12/25 06:46:47;;;;;;;3.65;1.65;;;;;;;3.44;49.78;99348.86;1797513;108;26029;-86
2021/12/25 06:50:34;;;;;;;2.77;1.70;;;;;;;3.42;49.70;99347.95;1798641;105;26014;-87
2021/12/25 06:54:29;;;;;;;3.75;1.30;;;;;;;3.40;49.71;99346.58;1819040;106;26153;-87
2021/12/25 06:58:17;;;;;;;2.65;1.40;;;;;;;3.39;49.64;99347.83;1888452;104;25974;-86
2021/12/25 07:01:53;;;;;;;3.80;1.62;;;;;;;3.38;49.57;99358.55;1885879;102;25854;-87
2021/12/25 07:05:25;;;;;;;2.47;1.60;;;;;;;3.37;49.52;99360.64;1866097;102;25897;-86
2021/12/25 07:09:14;;;;;;;2.08;1.70;;;;;;;3.37;49.47;99356.78;1919040;101;26638;-86
2021/12/25 07:13:06;;;;;;;;;;;;;;;3.37;49.38;99362.34;1894526;102;26047;-81
2021/12/25 07:16:48;;;;;;;2.67;1.45;;;;;;;3.38;49.30;99369.27;1895251;103;25782;-87
2021/12/25 07:20:30;;;;;;;2.65;1.40;;;;;;;3.39;49.25;99374.88;1840647;104;25856;-83
2021/12/25 07:24:22;;;;;;;2.52;1.50;;;;;;;3.40;49.22;99377.91;1821151;106;26011;-84
2021/12/25 07:28:36;;;;;;;;;;;;;;;;;;;;;
2021/12/25 07:32:28;;;;;;;;;;;;;;;;;;;;;
2021/12/25 07:36:28;;;;;;;3.00;2.00;;;;;;;3.48;49.02;99390.27;1734812;112;26058;-88
2021/12/25 07:41:10;;;;;;;3.37;2.02;;;;;;;4.57;49.27;99393.92;1748595;111;26055;-87
2021/12/25 07:45:05;;;;;;;;;;;;;;;;;;;;;
2021/12/25 07:48:47;;;;;;;4.58;2.80;;;;;;;9.02;45.64;99397.23;1717002;113;25889;-84
2021/12/25 07:53:10;;;;;;;;;;;;;;;;;;;;;
2021/12/25 07:57:11;;;;;;;3.17;2.27;;;;;;;10.97;42.91;99407.93;1650674;117;25980;-86
2021/12/25 08:00:46;;;;;;;4.35;2.60;;;;;;;11.55;41.81;99416.05;1658957;115;26377;-86
2021/12/25 08:04:37;;;;;;;;;;;;;;;;;;;;;
2021/12/25 08:08:06;;;;;;;4.33;3.60;;;;;;;12.32;40.64;99422.83;1737056;110;25962;-85
2021/12/25 08:12:13;;;;;;;4.83;4.08;;;;;;;13.11;39.99;99420.59;1734386;110;25941;-83
2021/12/25 08:21:06;;;;;;;;;;;;;;;;;;;;;
2021/12/25 08:25:10;;;;;;;3.45;3.15;;;;;;;16.55;36.33;99446.52;1748368;110;26040;-86
2021/12/25 08:29:12;;;;;;;3.72;3.20;;;;;;;17.43;35.35;99442.81;1745694;110;26718;-83
2021/12/25 08:33:38;;;;;;;;;;;;;;;;;;;;;
2021/12/25 08:37:34;;;;;;;;;;;;;;;;;;;;;
2021/12/25 08:49:41;;;;;;;;;;;;;;;;;;;;;
2021/12/25 08:57:03;;;;;;;4.47;3.70;;;;;;;23.19;29.01;99499.91;1763614;109;25859;-82
2021/12/25 09:00:27;;;;;;;5.95;2.90;;;;;;;24.11;30.61;99507.85;1753844;110;26062;-83
2021/12/25 09:04:00;;;;;;;3.15;2.85;;;;;;;24.92;30.17;99518.67;1754349;110;26688;-82
2021/12/25 09:07:47;;;;;;;5.53;3.47;;;;;;;25.52;29.24;99517.89;1753052;109;25864;-83
2021/12/25 09:11:12;;;;;;;4.35;3.90;;;;;;;25.89;28.46;99520.00;1757332;108;25900;-84
2021/12/25 09:15:06;;;;;;;4.22;3.33;;;;;;;26.18;28.12;99526.91;1759796;110;25913;-81
2021/12/25 09:18:37;;;;;;;4.72;3.47;;;;;;;26.16;27.56;99522.99;1753605;111;25988;-82
2021/12/25 09:22:07;;;;;;;5.92;3.52;;;;;;;26.02;27.20;99526.86;1797590;108;25968;-84
2021/12/25 09:26:01;;;;;;;5.08;4.03;;;;;;;26.01;26.83;99521.99;1802899;108;25945;-84
2021/12/25 09:29:18;;;;;;;6.30;4.47;;;;;;;25.90;26.57;99517.23;1796908;108;26030;-83
2021/12/25 09:32:55;;;;;;;4.83;4.40;;;;;;;25.64;26.61;99521.70;1861241;99;26425;-84
2021/12/25 09:36:32;;;;;;;6.28;4.85;;;;;;;25.49;26.57;99523.38;1962670;97;25932;-83
2021/12/25 09:40:18;;;;;;;4.50;4.10;;;;;;;25.28;26.67;99528.45;2031145;94;26325;-84
2021/12/25 09:44:07;;;;;;;5.42;4.60;;;;;;;25.06;26.76;99529.52;1927833;100;26670;-84
2021/12/25 09:47:36;;;;;;;6.20;5.15;;;;;;;24.88;26.80;99528.63;1838803;104;26430;-84
2021/12/25 09:51:19;;;;;;;6.30;5.20;;;;;;;24.85;26.73;99528.77;1832911;105;26052;-86
2021/12/25 09:54:53;;;;;;;6.33;5.42;;;;;;;24.59;27.00;99532.69;1880828;102;26595;-86
2021/12/25 09:58:31;;;;;;;6.62;5.92;;;;;;;24.44;27.10;99528.95;1853130;99;26046;-84
2021/12/25 10:02:15;;;;;;;8.10;6.55;;;;;;;24.57;27.37;99533.25;1952215;97;25921;-85
2021/12/25 10:05:41;;;;;;;6.97;6.35;;;;;;;24.70;27.15;99525.06;1930233;98;26026;-83
2021/12/25 10:09:35;;;;;;;7.83;6.33;;;;;;;24.62;27.37;99529.02;1921264;100;26041;-85
2021/12/25 10:13:06;;;;;;;8.13;6.67;;;;;;;24.74;27.41;99533.30;1905459;100;25959;-85
2021/12/25 10:16:45;;;;;;;8.28;7.03;;;;;;;25.06;27.29;99532.66;1908062;98;25965;-88
2021/12/25 10:24:27;;;;;;;6.58;5.90;;;;;;;25.72;26.79;99539.98;1944623;97;25792;-85
2021/12/25 10:28:00;;;;;;;;;;;;;;;25.75;26.78;99545.17;1936270;97;25803;-92
2021/12/25 10:31:39;;;;;;;8.50;6.20;;;;;;;25.56;26.44;99539.47;1940155;97;25738;-92
2021/12/25 10:39:40;;;;;;;7.00;6.33;;;;;;;25.40;26.69;99555.39;1919057;99;25914;-87
2021/12/25 10:43:53;;;;;;;6.47;5.87;;;;;;;25.12;26.75;99553.25;1922783;99;25827;-92
2021/12/25 10:47:33;;;;;;;;;;;;;;;;;;;;;
2021/12/25 10:50:55;;;;;;;6.33;5.72;;;;;;;24.79;26.79;99549.53;1879877;102;26210;-92
2021/12/25 10:54:42;;;;;;;7.25;6.30;;;;;;;24.57;26.98;99543.91;1939798;100;25882;-87
2021/12/25 10:58:21;;;;;;;7.80;6.42;;;;;;;24.20;27.05;99542.06;1938582;100;25789;-94
2021/12/25 11:02:08;;;;;;;11.43;7.50;;;;;;;23.55;27.31;99540.01;1934975;99;26157;-92
2021/12/25 11:06:19;;;;;;;10.53;7.15;;;;;;;22.89;27.70;99546.73;1929722;100;25792;-89
2021/12/25 11:10:29;;;;;;;;;;;;;;;;;;;;;
2021/12/25 11:14:08;;;;;;;;;;;;;;;;;;;;;
2021/12/25 11:18:04;;;;;;;;;;;;;;;;;;;;;
2021/12/25 11:21:39;;;;;;;8.43;6.50;;;;;;;21.26;29.41;99537.64;1945044;98;25840;-88
2021/12/25 11:26:16;;;;;;;8.35;6.45;;;;;;;21.07;29.67;99544.89;1986675;97;25529;-91
2021/12/25 11:29:55;;;;;;;;;;;;;;;;;;;;;
2021/12/25 11:42:32;;;;;;;9.15;5.72;;;;;;;20.95;30.41;99552.77;2005541;94;25767;-93
2021/12/25 11:47:02;;;;;;;8.45;6.75;;;;;;;21.14;30.44;99549.07;2040389;92;25777;-84
2021/12/25 11:51:00;;;;;;;;;;;;;;;;;;;;;
2021/12/25 11:58:58;;;;;;;6.78;5.72;;;;;;;21.52;30.21;99540.31;2066401;91;25830;-85
2021/12/25 12:02:59;;;;;;;;;;;;;;;;;;;;;
2021/12/25 12:07:04;;;;;;;;;;;;;;;;;;;;;
2021/12/25 12:11:00;;;;;;;10.50;6.45;;;;;;;21.57;30.07;99537.05;2076200;92;25872;-82
2021/12/25 12:14:54;;;;;;;7.50;5.85;;;;;;;21.57;29.83;99534.40;2065921;93;25896;-90
2021/12/25 12:23:17;;;;;;;;;;;;;;;;;;;;;
2021/12/25 12:35:30;;;;;;;10.72;7.87;;;;;;;20.71;29.85;99550.91;2016370;95;25959;-91
2021/12/25 12:39:39;;;;;;;8.08;6.15;;;;;;;20.00;30.34;99549.45;2027976;96;25864;-87
2021/12/25 12:43:36;;;;;;;11.05;6.87;;;;;;;19.27;30.89;99552.23;2046175;95;25835;-85
2021/12/25 12:47:28;;;;;;;8.63;6.33;;;;;;;18.51;31.54;99557.08;1891341;102;31444;-84
2021/12/25 12:51:08;;;;;;;9.75;6.75;;;;;;;17.92;32.17;99567.08;1776144;108;26058;-88
2021/12/25 12:55:21;;;;;;;8.50;5.80;;;;;;;17.34;32.81;99557.13;1791199;107;26285;-86
2021/12/25 12:59:02;;;;;;;9.45;6.45;;;;;;;16.87;33.33;99568.42;1789934;109;25861;-88
2021/12/25 13:02:50;;;;;;;9.75;5.95;;;;;;;16.33;33.80;99563.01;1787415;109;25943;-91
2021/12/25 13:06:32;;;;;;;9.38;6.28;;;;;;;15.86;34.25;99567.94;1800498;108;25795;-84
2021/12/25 13:10:29;;;;;;;8.08;6.22;;;;;;;15.47;34.68;99566.57;1817347;106;26211;-89
2021/12/25 13:14:18;;;;;;;8.65;5.92;;;;;;;15.05;35.11;99576.13;1849994;104;26181;-90
2021/12/25 13:18:02;;;;;;;11.33;6.35;;;;;;;14.63;35.55;99573.33;1815747;106;25848;-89
2021/12/25 13:21:53;;;;;;;8.43;6.35;;;;;;;14.28;35.89;99578.28;1819734;107;25826;-89
2021/12/25 13:25:33;;;;;;;8.25;5.87;;;;;;;13.94;36.22;99586.71;1822455;106;26224;-86
2021/12/25 13:29:37;;;;;;;;;;;;;;;;;;;;;
2021/12/25 13:33:28;;;;;;;9.95;6.33;;;;;;;13.32;36.91;99598.13;1717126;113;26646;-86
2021/12/25 13:37:15;;;;;;;;;;;;;;;;;;;;;
2021/12/25 13:44:52;;;;;;;10.13;5.87;;;;;;;12.54;37.83;99601.47;1715575;112;26074;-89
2021/12/25 14:06:00;;;;;;;;;;;;;;;;;;;;;
2021/12/25 14:11:43;;;;;;;;;;;;;;;;;;;;;
2021/12/25 14:15:23;;;;;;;11.83;6.67;;;;;;;11.05;39.41;99613.58;1889298;100;25858;-90
2021/12/25 14:19:18;;;;;;;;;;;;;;;;;;;;;
2021/12/25 14:23:17;;;;;;;13.70;7.17;;;;;;;10.51;39.76;99612.58;1943588;100;25471;-92
2021/12/25 14:30:43;;;;;;;12.98;6.87;;;;;;;10.10;40.12;99628.11;1822367;103;25863;-92
2021/12/25 14:34:28;;;;;;;;;;;;;;;;;;;;;
2021/12/25 14:38:19;;;;;;;11.63;7.17;;;;;;;9.80;40.45;99632.89;1825250;104;26058;-92
2021/12/25 14:42:27;;;;;;;10.85;6.95;;;;;;;9.64;40.60;99627.44;1828904;105;25741;-85
2021/12/25 14:50:27;;;;;;;15.60;7.83;;;;;;;9.34;40.87;99633.47;1773125;109;25990;-92
2021/12/25 14:54:02;;;;;;;11.00;6.47;;;;;;;9.18;41.02;99642.76;1804424;108;25873;-92
2021/12/25 14:58:10;;;;;;;11.20;7.35;;;;;;;9.07;41.15;99643.84;1760537;109;26049;-90
2021/12/25 15:02:00;;;;;;;14.03;7.12;;;;;;;8.93;41.23;99628.43;1824430;106;25806;-86
2021/12/25 15:05:49;;;;;;;14.73;7.25;;;;;;;8.82;41.37;99623.47;1844253;103;25924;-90
2021/12/25 15:09:42;;;;;;;13.15;7.42;;;;;;;8.70;41.48;99622.38;1838053;104;25443;-89
2021/12/25 15:17:06;;;;;;;10.43;6.10;;;;;;;8.48;41.63;99639.28;1867834;102;25818;-89
2021/12/25 15:20:39;;;;;;;9.78;6.70;;;;;;;8.38;41.74;99645.14;1841414;104;26013;-89
2021/12/25 15:24:17;;;;;;;11.65;7.15;;;;;;;8.28;41.84;99644.45;1831749;105;25972;-91
2021/12/25 15:28:06;;;;;;;10.60;6.65;;;;;;;8.20;41.90;99648.59;1827524;105;26040;-87
2021/12/25 15:31:39;;;;;;;14.93;8.15;;;;;;;8.08;41.99;99645.33;1823414;105;25893;-93
2021/12/25 15:35:31;;;;;;;;;;;;;;;8.01;42.07;99643.45;1808191;105;25935;-93
2021/12/25 15:39:21;;;;;;;14.03;7.67;;;;;;;7.93;42.18;99653.67;1866125;101;26053;-92
2021/12/25 15:42:59;;;;;;;11.28;6.83;;;;;;;7.84;42.17;99650.86;1895289;101;25923;-89
2021/12/25 15:50:16;;;;;;;11.33;7.35;;;;;;;7.64;42.24;99656.00;2059174;94;26215;-88
2021/12/25 15:53:46;;;;;;;14.00;7.53;;;;;;;7.56;42.34;99654.54;2057249;94;25832;-88
2021/12/25 15:57:50;;;;;;;14.85;8.45;;;;;;;7.49;42.34;99653.51;2002838;96;25734;-88
2021/12/25 16:01:16;;;;;;;13.75;7.72;;;;;;;7.41;42.39;99658.91;2057177;92;25772;-90
2021/12/25 16:04:52;;;;;;;14.10;7.50;;;;;;;7.32;42.46;99656.98;2039697;94;25870;-92
2021/12/25 16:08:24;;;;;;;13.00;7.85;;;;;;;7.25;42.53;99664.55;1978904;98;25822;-84
2021/12/25 16:11:55;;;;;;;12.80;7.67;;;;;;;7.19;42.62;99673.45;2021416;94;25826;-89
2021/12/25 16:16:04;;;;;;;11.05;6.85;;;;;;;7.12;42.69;99679.33;2069391;92;26886;-85
2021/12/25 16:24:22;;;;;;;;;;;;;;;;;;;;;
2021/12/25 16:27:56;;;;;;;16.35;6.97;;;;;;;6.89;42.79;99683.50;2149293;89;25739;-86
2021/12/25 16:31:49;;;;;;;14.83;7.85;;;;;;;6.83;42.85;99687.21;2169443;88;25793;-88
2021/12/25 16:35:18;;;;;;;11.40;7.40;;;;;;;6.76;42.90;99699.13;2140680;89;26527;-89
2021/12/25 16:38:57;;;;;;;12.33;7.33;;;;;;;6.71;42.97;99689.03;2173071;88;25798;-84
2021/12/25 16:46:47;;;;;;;15.10;7.90;;;;;;;6.61;43.04;99697.38;2158077;88;26395;-91
2021/12/25 16:58:54;;;;;;;16.87;8.70;;;;;;;6.45;43.19;99703.85;2036782;95;25436;-83
2021/12/25 17:06:41;;;;;;;14.78;8.75;;;;;;;6.43;43.68;99704.21;2041297;95;25994;-84
2021/12/25 17:10:30;;;;;;;16.12;9.28;;;;;;;6.40;43.71;99706.70;2031072;94;26444;-83
2021/12/25 17:14:00;;;;;;;16.93;8.58;;;;;;;6.33;43.78;99710.83;2030591;95;25918;-92
2021/12/25 17:17:34;;;;;;;19.20;8.75;;;;;;;6.29;43.82;99715.88;2016828;97;26421;-86
2021/12/25 17:21:07;;;;;;;15.78;9.43;;;;;;;6.23;43.88;99713.97;1952818;98;26494;-88
2021/12/25 17:24:46;;;;;;;14.43;9.03;;;;;;;6.19;43.82;99718.59;1970947;98;26447;-89
2021/12/25 17:28:42;;;;;;;18.82;9.15;;;;;;;6.14;43.80;99712.39;2016121;96;26043;-89
2021/12/25 17:40:36;;;;;;;17.90;8.55;;;;;;;5.96;43.83;99724.35;1873458;103;25833;-84
2021/12/25 17:44:17;;;;;;;;;;;;;;;;;;;;;
2021/12/25 17:47:21;;;;;;;14.33;8.53;;;;;;;5.89;43.86;99717.20;1798811;105;26349;-85
2021/12/25 17:50:48;;;;;;;14.70;9.10;;;;;;;5.85;43.88;99716.64;1871791;102;25847;-87
2021/12/25 17:54:25;;;;;;;19.17;9.68;;;;;;;5.83;43.89;99719.59;1932042;99;25754;-89
2021/12/25 17:57:58;;;;;;;14.25;7.78;;;;;;;5.80;43.88;99707.84;1941956;100;27090;-93
2021/12/25 18:01:21;;;;;;;20.25;9.20;;;;;;;5.74;43.90;99718.89;1929494;99;25957;-87
2021/12/25 18:04:57;;;;;;;14.60;9.35;;;;;;;5.72;43.92;99721.84;1985435;97;25817;-87
2021/12/25 18:08:29;;;;;;;16.77;9.05;;;;;;;5.67;43.93;99714.36;1948195;98;26307;-87
2021/12/25 18:12:18;;;;;;;18.07;8.80;;;;;;;5.65;43.96;99720.75;1928981;101;26452;-88
2021/12/25 18:17:04;;;;;;;;;;;;;;;;;;;;;
2021/12/25 18:21:13;;;;;;;17.35;9.45;;;;;;;5.58;43.99;99723.97;1944830;99;26035;-82
2021/12/25 18:24:51;;;;;;;15.85;9.38;;;;;;;5.54;44.01;99724.70;1965804;98;26314;-85
2021/12/25 18:35:33;;;;;;;20.68;10.30;;;;;;;5.40;44.05;99723.34;1923978;99;25777;-79
2021/12/25 18:39:23;;;;;;;22.07;10.98;;;;;;;5.35;44.04;99721.91;1951939;99;26370;-86
2021/12/25 18:43:08;;;;;;;20.68;10.45;;;;;;;5.33;44.06;99727.84;1947461;98;25845;-85
2021/12/25 18:51:39;;;;;;;21.70;9.95;;;;;;;5.24;44.03;99739.19;2013768;96;25855;-85
2021/12/25 18:54:47;;;;;;;20.57;9.90;;;;;;;5.20;44.04;99727.86;1988205;97;25819;-84
2021/12/25 18:59:07;;;;;;;18.15;9.80;;;;;;;5.16;44.04;99732.05;1978393;97;26690;-85
2021/12/25 19:02:44;;;;;;;19.35;11.00;;;;;;;5.13;44.04;99738.78;1977532;98;25895;-81
2021/12/25 19:06:14;;;;;;;19.52;10.05;;;;;;;5.09;44.02;99749.42;1975804;95;25979;-85
2021/12/25 19:09:56;;;;;;;17.82;10.13;;;;;;;5.05;44.03;99744.98;2147707;90;25868;-83
2021/12/25 19:17:00;;;;;;;20.27;11.33;;;;;;;5.00;44.03;99743.08;2076901;92;25828;-87
2021/12/25 19:20:51;;;;;;;20.20;10.43;;;;;;;4.96;44.04;99745.55;2089227;93;26256;-85
2021/12/25 19:24:41;;;;;;;20.85;10.28;;;;;;;4.93;44.06;99736.82;2074774;92;25920;-87
2021/12/25 19:28:02;;;;;;;19.17;11.15;;;;;;;4.90;44.05;99733.70;2036979;96;25927;-92
2021/12/25 19:31:43;;;;;;;22.87;10.05;;;;;;;4.87;44.05;99734.02;2047737;93;25826;-88
2021/12/25 19:35:26;;;;;;;27.62;11.80;;;;;;;4.83;44.07;99733.44;2095531;90;26226;-83
2021/12/25 19:39:04;;;;;;;23.45;11.85;;;;;;;4.80;44.07;99735.91;2090396;93;26337;-87
2021/12/25 19:42:56;;;;;;;25.75;12.45;;;;;;;4.77;44.09;99734.50;2064187;93;26038;-88
2021/12/25 19:46:38;;;;;;;18.98;11.00;;;;;;;4.74;44.08;99744.30;2018044;95;25845;-85
2021/12/25 19:50:25;;;;;;;24.72;11.70;;;;;;;4.69;44.10;99745.44;1994208;95;25794;-80
2021/12/25 19:54:10;;;;;;;22.00;11.78;;;;;;;4.67;44.11;99741.03;1981578;97;25784;-83
2021/12/25 19:57:45;;;;;;;20.57;11.50;;;;;;;4.63;44.11;99746.50;2001241;95;25822;-86
2021/12/25 20:01:41;;;;;;;25.23;11.53;;;;;;;4.60;44.10;99745.50;1958846;98;26073;-83
2021/12/25 20:05:16;;;;;;;25.15;12.55;;;;;;;4.58;44.11;99758.34;1909618;101;26617;-87
2021/12/25 20:08:51;;;;;;;23.92;11.15;;;;;;;4.56;44.11;99756.55;1895386;102;25806;-87
2021/12/25 20:12:29;;;;;;;23.73;11.05;;;;;;;4.53;44.13;99757.30;1908815;100;26095;-85
2021/12/25 20:16:08;;;;;;;22.37;11.93;;;;;;;4.51;44.11;99756.34;1951660;99;26789;-86
2021/12/25 20:19:39;;;;;;;23.73;11.40;;;;;;;4.48;44.10;99757.11;1936785;100;25771;-87
2021/12/25 20:23:43;;;;;;;28.60;13.08;;;;;;;4.45;44.10;99759.98;1956217;96;25847;-87
2021/12/25 20:27:19;;;;;;;22.60;11.15;;;;;;;4.43;44.08;99761.23;1971706;96;25875;-82
2021/12/25 20:30:50;;;;;;;25.50;11.85;;;;;;;4.40;44.08;99766.69;1887575;101;26070;-86
2021/12/25 20:35:02;;;;;;;25.95;11.85;;;;;;;4.37;44.11;99765.28;1908635;101;25906;-83
2021/12/25 20:38:47;;;;;;;26.68;12.43;;;;;;;4.35;44.09;99764.33;1847141;105;26420;-86
2021/12/25 20:46:37;;;;;;;21.10;11.25;;;;;;;4.29;44.07;99773.11;1747422;110;25974;-81
2021/12/25 20:50:25;;;;;;;26.10;11.63;;;;;;;4.26;44.06;99768.74;1758720;111;25958;-84
2021/12/25 20:54:03;;;;;;;27.52;12.28;;;;;;;4.22;44.08;99772.03;1748516;110;26001;-84
2021/12/25 20:57:50;;;;;;;24.57;12.00;;;;;;;4.20;44.06;99773.23;1803292;107;25932;-83
2021/12/25 21:01:21;;;;;;;23.95;10.88;;;;;;;4.16;44.06;99777.81;1824550;106;25831;-81
2021/12/25 21:05:21;;;;;;;23.65;11.45;;;;;;;4.25;45.43;99775.61;1837240;105;25881;-81
2021/12/25 21:09:03;;;;;;;21.57;11.38;;;;;;;4.25;45.41;99778.19;1843881;105;25879;-82
2021/12/25 21:12:39;;;;;;;19.73;10.90;;;;;;;4.24;45.52;99785.84;1840152;105;25938;-83
2021/12/25 21:16:13;;;;;;;28.45;13.20;;;;;;;4.22;45.58;99782.34;1803746;107;26070;-83
2021/12/25 21:19:47;;;;;;;22.37;11.55;;;;;;;4.20;45.57;99787.43;1856097;105;26058;-81
2021/12/25 21:23:24;;;;;;;22.00;10.32;;;;;;;4.29;47.73;99788.21;1863814;104;26033;-80
2021/12/25 21:31:09;;;;;;;;;;;;;;;;;;;;;
2021/12/25 21:38:29;;;;;;;26.35;11.80;;;;;;;4.56;47.46;99793.97;1917116;100;25900;-86
2021/12/25 21:41:59;;;;;;;21.17;11.55;;;;;;;4.50;47.28;99787.73;1877015;100;26941;-83
2021/12/25 21:45:35;;;;;;;24.98;13.22;;;;;;;4.47;47.15;99791.91;1941373;97;25894;-82
2021/12/25 21:49:11;;;;;;;25.65;12.37;;;;;;;4.44;46.99;99791.78;1998606;96;25769;-84
2021/12/25 21:52:38;;;;;;;24.67;11.73;;;;;;;4.38;46.88;99790.25;2026209;92;25758;-81
2021/12/25 21:56:29;;;;;;;23.65;12.20;;;;;;;4.34;46.81;99794.83;2025489;94;25982;-81
2021/12/25 21:59:56;;;;;;;23.98;12.05;;;;;;;4.29;46.71;99797.63;2027243;94;25653;-84
2021/12/25 22:03:31;;;;;;;25.02;12.03;;;;;;;4.27;46.63;99801.45;1993269;97;43937;-81
2021/12/25 22:07:11;;;;;;;22.48;11.70;;;;;;;4.24;46.58;99799.62;2014412;94;25876;-82
2021/12/25 22:11:06;;;;;;;;;;;;;;;;;;;;;
2021/12/25 22:14:48;;;;;;;;;;;;;;;4.18;46.46;99795.92;2178355;87;26331;-87
2021/12/25 22:18:16;;;;;;;23.42;12.63;;;;;;;4.14;46.40;99790.17;2215589;88;25737;-83
2021/12/25 22:25:48;;;;;;;24.23;12.47;;;;;;;4.06;46.30;99790.30;2061926;92;26093;-82
2021/12/25 22:29:33;;;;;;;26.12;12.55;;;;;;;4.03;46.28;99791.92;2110718;91;25660;-85
2021/12/25 22:33:16;;;;;;;24.87;12.35;;;;;;;4.01;46.25;99790.09;2115206;92;25902;-84
2021/12/25 22:37:01;;;;;;;26.33;11.55;;;;;;;3.99;46.24;99782.30;2116116;92;25509;-85
2021/12/25 22:40:36;;;;;;;25.48;11.80;;;;;;;3.97;46.23;99781.35;2112178;92;25692;-80
2021/12/25 22:44:36;;;;;;;;;;;;;;;;;;;;;
2021/12/25 22:48:24;;;;;;;22.27;11.08;;;;;;;3.92;46.14;99789.74;2097342;92;26396;-89
2021/12/25 22:51:51;;;;;;;24.18;10.63;;;;;;;3.89;46.10;99798.23;2092313;93;26573;-82
2021/12/25 22:55:35;;;;;;;26.40;12.28;;;;;;;3.86;46.06;99794.64;2110410;92;25769;-87
2021/12/25 22:59:26;;;;;;;28.60;12.33;;;;;;;3.83;46.00;99801.84;2061669;92;25927;-80
2021/12/25 23:03:02;;;;;;;27.90;11.97;;;;;;;3.79;45.97;99799.95;2083566;92;25773;-82
2021/12/25 23:06:34;;;;;;;24.57;11.78;;;;;;;3.76;45.90;99801.99;2067501;93;26375;-86
2021/12/25 23:10:22;;;;;;;20.72;10.85;;;;;;;3.72;45.88;99793.67;2061641;93;25717;-80